createdAt,value
2023-03-29T00:04:29.647Z,46.80
2023-03-29T00:07:35.739Z,46.97
2023-03-29T00:10:38.453Z,46.91
2023-03-29T00:13:41.051Z,46.76
2023-03-29T00:16:45.164Z,46.64
2023-03-29T00:19:48.076Z,46.74
2023-03-29T00:22:51.115Z,46.76
2023-03-29T00:25:58.097Z,46.71
2023-03-29T00:29:00.908Z,46.64
2023-03-29T00:32:03.590Z,46.64
2023-03-29T00:35:06.592Z,46.66
2023-03-29T00:38:09.667Z,46.69
2023-03-29T00:41:13.677Z,46.61
2023-03-29T00:44:54.115Z,46.73
2023-03-29T00:48:00.303Z,46.69
2023-03-29T00:51:10.430Z,46.73
2023-03-29T00:54:18.769Z,46.72
2023-03-29T00:57:25.831Z,46.70
2023-03-29T01:00:36.696Z,46.78
2023-03-29T01:04:09.004Z,46.97
2023-03-29T01:07:23.412Z,46.96
2023-03-29T01:10:39.329Z,47.11
2023-03-29T01:13:48.668Z,47.21
2023-03-29T01:16:52.005Z,47.29
2023-03-29T01:23:58.417Z,47.49
2023-03-29T01:27:09.566Z,47.53
2023-03-29T01:30:18.568Z,47.56
2023-03-29T01:33:26.474Z,47.57
2023-03-29T01:36:37.212Z,47.57
2023-03-29T01:39:40.139Z,47.65
2023-03-29T01:42:49.761Z,47.66
2023-03-29T01:46:02.127Z,47.62
2023-03-29T01:49:13.557Z,47.70
2023-03-29T01:52:23.227Z,47.87
2023-03-29T01:55:32.159Z,47.95
2023-03-29T01:58:40.978Z,48.01
2023-03-29T02:02:05.043Z,48.05
2023-03-29T02:05:10.108Z,48.18
2023-03-29T02:12:20.235Z,48.51
2023-03-29T02:15:23.662Z,48.49
2023-03-29T02:18:26.340Z,48.61
2023-03-29T02:22:16.688Z,48.58
2023-03-29T02:25:19.997Z,48.63
2023-03-29T02:28:24.724Z,48.77
2023-03-29T02:31:33.965Z,48.87
2023-03-29T02:34:51.083Z,49.10
2023-03-29T02:37:56.521Z,49.57
2023-03-29T02:41:01.150Z,49.74
2023-03-29T02:44:08.288Z,49.94
2023-03-29T02:47:24.957Z,50.28
2023-03-29T02:50:35.686Z,50.34
2023-03-29T02:53:47.441Z,50.87
2023-03-29T02:57:00.908Z,50.85
2023-03-29T03:00:05.511Z,50.80
2023-03-29T03:03:09.865Z,51.33
2023-03-29T03:06:13.632Z,51.51
2023-03-29T03:09:19.274Z,51.72
2023-03-29T03:12:21.843Z,51.75
2023-03-29T03:15:24.521Z,51.92
2023-03-29T03:18:27.866Z,52.26
2023-03-29T03:21:30.532Z,52.93
2023-03-29T03:24:56.473Z,52.94
2023-03-29T03:27:59.158Z,53.71
2023-03-29T03:31:02.257Z,54.20
2023-03-29T03:34:05.028Z,54.45
2023-03-29T03:37:07.602Z,53.98
2023-03-29T03:40:12.009Z,54.20
2023-03-29T03:43:14.749Z,54.94
2023-03-29T03:46:18.223Z,55.37
2023-03-29T03:49:21.963Z,55.82
2023-03-29T03:56:18.324Z,56.03
2023-03-29T03:59:27.063Z,55.63
2023-03-29T04:02:31.005Z,56.49
2023-03-29T04:05:34.207Z,55.98
2023-03-29T04:08:36.812Z,56.34
2023-03-29T04:16:05.999Z,56.47
2023-03-29T04:19:08.604Z,56.60
2023-03-29T04:22:11.194Z,56.32
2023-03-29T04:28:57.639Z,56.36
2023-03-29T04:32:00.390Z,56.00
2023-03-29T04:35:04.891Z,56.43
2023-03-29T04:38:10.284Z,56.46
2023-03-29T04:41:13.571Z,56.69
2023-03-29T04:44:16.249Z,56.65
2023-03-29T04:47:19.646Z,57.03
2023-03-29T04:50:22.257Z,57.65
2023-03-29T04:53:25.221Z,57.37
2023-03-29T04:57:00.376Z,57.29
2023-03-29T05:00:08.834Z,57.11
2023-03-29T05:07:20.636Z,57.64
2023-03-29T05:15:41.173Z,57.70
2023-03-29T05:18:44.594Z,57.79
2023-03-29T05:26:10.061Z,57.69
2023-03-29T05:36:15.296Z,57.16
2023-03-29T05:39:18.292Z,57.22
2023-03-29T05:42:22.700Z,57.44
2023-03-29T05:45:28.787Z,57.49
2023-03-29T05:48:32.817Z,57.72
2023-03-29T05:51:35.669Z,58.03
2023-03-29T05:54:53.996Z,58.28
2023-03-29T05:57:57.965Z,58.23
2023-03-29T06:01:04.683Z,58.16
2023-03-29T06:04:07.737Z,58.15
2023-03-29T06:07:12.713Z,58.48
2023-03-29T06:10:16.013Z,58.81
2023-03-29T06:13:18.819Z,59.16
2023-03-29T06:16:21.705Z,59.55
2023-03-29T06:19:24.583Z,59.71
2023-03-29T06:22:28.007Z,59.68
2023-03-29T06:25:30.633Z,59.64
2023-03-29T06:28:33.440Z,59.59
2023-03-29T06:31:36.657Z,59.59
2023-03-29T06:34:39.681Z,59.64
2023-03-29T06:37:49.533Z,59.70
2023-03-29T06:40:52.852Z,59.68
2023-03-29T06:43:55.649Z,59.81
2023-03-29T06:46:59.578Z,59.99
2023-03-29T06:50:02.308Z,59.77
2023-03-29T06:53:05.049Z,59.85
2023-03-29T06:56:09.875Z,60.00
2023-03-29T06:59:13.680Z,59.87
2023-03-29T07:02:17.587Z,59.86
2023-03-29T07:05:22.069Z,59.92
2023-03-29T07:08:31.383Z,59.73
2023-03-29T07:11:35.533Z,59.73
2023-03-29T07:14:38.154Z,59.88
2023-03-29T07:17:41.938Z,59.80
2023-03-29T07:20:45.094Z,59.68
2023-03-29T07:23:47.967Z,59.67
2023-03-29T07:27:03.190Z,59.51
2023-03-29T07:30:11.354Z,59.65
2023-03-29T07:33:14.528Z,59.62
2023-03-29T07:36:17.418Z,59.46
2023-03-29T07:43:07.552Z,59.52
2023-03-29T07:46:11.313Z,59.56
2023-03-29T07:49:14.009Z,59.65
2023-03-29T07:52:17.024Z,59.45
2023-03-29T07:55:19.704Z,59.40
2023-03-29T07:58:22.599Z,59.32
2023-03-29T08:01:25.736Z,59.40
2023-03-29T08:05:09.501Z,59.50
2023-03-29T08:08:14.244Z,59.31
2023-03-29T08:11:20.195Z,59.36
2023-03-29T08:14:23.921Z,59.36
2023-03-29T08:17:26.682Z,59.26
2023-03-29T08:20:29.500Z,59.03
2023-03-29T08:24:19.746Z,58.82
2023-03-29T08:27:23.576Z,58.88
2023-03-29T08:30:27.166Z,58.76
2023-03-29T08:33:29.773Z,58.63
2023-03-29T08:36:33.170Z,58.35
2023-03-29T08:44:06.598Z,57.81
2023-03-29T08:47:42.582Z,57.65
2023-03-29T08:50:54.675Z,57.61
2023-03-29T08:54:05.414Z,57.60
2023-03-29T08:57:32.850Z,57.55
2023-03-29T09:00:42.931Z,57.44
2023-03-29T09:03:54.006Z,57.28
2023-03-29T09:06:57.945Z,57.12
2023-03-29T09:10:00.808Z,56.84
2023-03-29T09:13:21.515Z,56.94
2023-03-29T09:16:45.341Z,56.93
2023-03-29T09:19:54.053Z,56.95
2023-03-29T09:23:24.434Z,56.69
2023-03-29T09:26:39.498Z,56.82
2023-03-29T09:33:50.550Z,56.71
2023-03-29T09:36:56.917Z,56.22
2023-03-29T09:40:02.042Z,56.29
2023-03-29T09:43:12.381Z,56.55
2023-03-29T09:46:40.775Z,56.57
2023-03-29T09:53:52.442Z,56.56
2023-03-29T09:56:55.133Z,56.01
2023-03-29T10:00:01.898Z,55.71
2023-03-29T10:03:07.970Z,55.58
2023-03-29T10:06:12.697Z,54.87
2023-03-29T10:09:20.067Z,54.90
2023-03-29T10:12:23.198Z,55.03
2023-03-29T10:15:30.392Z,54.63
2023-03-29T10:18:44.033Z,54.40
2023-03-29T10:21:52.906Z,54.54
2023-03-29T10:24:57.242Z,54.63
2023-03-29T10:28:07.526Z,54.36
2023-03-29T10:31:18.920Z,54.41
2023-03-29T10:34:26.331Z,54.09
2023-03-29T10:37:29.209Z,53.84
2023-03-29T10:40:34.189Z,53.62
2023-03-29T10:43:40.012Z,53.64
2023-03-29T10:46:44.278Z,53.16
2023-03-29T10:49:53.209Z,53.21
2023-03-29T10:52:57.798Z,52.92
2023-03-29T10:56:23.209Z,52.91
2023-03-29T10:59:54.005Z,52.58
2023-03-29T11:03:16.993Z,52.23
2023-03-29T11:06:33.137Z,52.64
2023-03-29T11:09:53.317Z,52.79
2023-03-29T11:13:08.564Z,52.25
2023-03-29T11:16:30.264Z,52.60
2023-03-29T11:19:44.655Z,52.35
2023-03-29T11:23:18.287Z,52.29
2023-03-29T11:26:27.268Z,52.13
2023-03-29T11:30:14.400Z,52.34
2023-03-29T11:33:29.236Z,52.55
2023-03-29T11:36:50.498Z,52.72
2023-03-29T11:40:13.782Z,52.93
2023-03-29T11:43:28.071Z,52.72
2023-03-29T11:46:42.704Z,52.58
2023-03-29T11:49:56.342Z,52.65
2023-03-29T11:53:07.115Z,52.78
2023-03-29T11:56:19.734Z,52.78
2023-03-29T11:59:35.806Z,52.63
2023-03-29T12:02:49.508Z,52.38
2023-03-29T12:05:54.027Z,51.81
2023-03-29T12:09:00.654Z,50.98
2023-03-29T12:12:19.991Z,50.88
2023-03-29T12:15:24.967Z,51.58
2023-03-29T12:18:33.193Z,51.40
2023-03-29T12:21:36.830Z,51.74
2023-03-29T12:24:43.573Z,51.48
2023-03-29T12:28:14.022Z,51.26
2023-03-29T12:31:34.620Z,51.35
2023-03-29T12:35:32.130Z,51.24
2023-03-29T12:38:37.427Z,51.49
2023-03-29T12:42:19.422Z,51.12
2023-03-29T12:45:33.379Z,51.52
2023-03-29T12:48:41.734Z,51.37
2023-03-29T12:51:44.576Z,51.77
2023-03-29T12:54:57.303Z,51.89
2023-03-29T12:58:05.532Z,51.46
2023-03-29T13:05:29.675Z,51.47
2023-03-29T13:08:38.818Z,52.03
2023-03-29T13:11:42.739Z,51.61
2023-03-29T13:14:51.835Z,51.77
2023-03-29T13:18:14.130Z,51.54
2023-03-29T13:21:35.548Z,51.46
2023-03-29T13:24:47.269Z,51.79
2023-03-29T13:28:04.733Z,51.89
2023-03-29T13:31:28.812Z,51.99
2023-03-29T13:34:53.484Z,52.38
2023-03-29T13:38:18.178Z,52.04
2023-03-29T13:41:43.859Z,52.38
2023-03-29T13:44:49.198Z,52.40
2023-03-29T13:48:05.607Z,52.34
2023-03-29T13:51:18.069Z,52.29
2023-03-29T13:54:32.449Z,52.05
2023-03-29T13:57:40.143Z,52.32
2023-03-29T14:00:51.368Z,52.21
2023-03-29T14:03:55.543Z,52.38
2023-03-29T14:06:59.135Z,52.29
2023-03-29T14:10:02.225Z,52.54
2023-03-29T14:13:05.143Z,52.64
2023-03-29T14:16:11.663Z,52.27
2023-03-29T14:19:18.414Z,52.38
2023-03-29T14:22:21.972Z,52.53
2023-03-29T14:25:25.545Z,52.65
2023-03-29T14:28:29.006Z,52.83
2023-03-29T14:31:36.123Z,52.92
2023-03-29T14:34:40.189Z,52.91
2023-03-29T14:37:44.206Z,52.86
2023-03-29T14:40:47.070Z,52.55
2023-03-29T14:43:50.732Z,52.78
2023-03-29T14:46:54.253Z,52.74
2023-03-29T14:50:01.911Z,52.81
2023-03-29T14:53:06.164Z,52.96
2023-03-29T14:56:13.798Z,53.19
2023-03-29T14:59:28.981Z,53.35
2023-03-29T15:02:33.568Z,53.33
2023-03-29T15:05:41.081Z,53.37
2023-03-29T15:08:54.399Z,53.43
2023-03-29T15:12:04.754Z,53.51
2023-03-29T15:15:12.039Z,53.70
2023-03-29T15:18:17.181Z,53.72
2023-03-29T15:21:22.200Z,53.67
2023-03-29T15:24:32.841Z,53.68
2023-03-29T15:27:42.656Z,53.89
2023-03-29T15:30:54.249Z,53.88
2023-03-29T15:34:10.409Z,53.94
2023-03-29T15:37:13.271Z,53.95
2023-03-29T15:40:17.310Z,53.82
2023-03-29T15:43:21.707Z,53.84
2023-03-29T15:46:24.436Z,53.89
2023-03-29T15:49:27.609Z,53.91
2023-03-29T15:52:30.511Z,54.12
2023-03-29T15:55:33.229Z,54.19
2023-03-29T15:58:37.425Z,53.99
2023-03-29T16:01:41.801Z,54.20
2023-03-29T16:04:44.831Z,54.35
2023-03-29T16:07:47.581Z,54.59
2023-03-29T16:10:50.685Z,54.72
2023-03-29T16:13:53.516Z,54.96
2023-03-29T16:17:06.510Z,55.01
2023-03-29T16:20:13.077Z,55.09
2023-03-29T16:23:23.613Z,55.29
2023-03-29T16:26:27.029Z,55.20
2023-03-29T16:29:32.455Z,55.33
2023-03-29T16:32:38.000Z,55.43
2023-03-29T16:35:41.035Z,55.23
2023-03-29T16:38:45.418Z,55.32
2023-03-29T16:41:54.657Z,55.29
2023-03-29T16:45:02.927Z,55.63
2023-03-29T16:48:13.838Z,55.60
2023-03-29T16:51:21.110Z,55.62
2023-03-29T16:54:30.448Z,56.01
2023-03-29T16:57:35.116Z,56.09
2023-03-29T17:00:42.159Z,55.90
2023-03-29T17:03:49.443Z,55.73
2023-03-29T17:06:52.361Z,55.96
2023-03-29T17:09:58.363Z,56.18
2023-03-29T17:13:01.196Z,55.99
2023-03-29T17:16:07.414Z,56.27
2023-03-29T17:19:18.250Z,56.53
2023-03-29T17:22:27.839Z,56.34
2023-03-29T17:25:39.547Z,56.56
2023-03-29T17:28:47.536Z,56.54
2023-03-29T17:32:05.958Z,56.47
2023-03-29T17:35:15.403Z,56.58
2023-03-29T17:42:00.866Z,56.67
2023-03-29T17:45:08.820Z,56.58
2023-03-29T17:48:12.654Z,56.59
2023-03-29T17:51:16.456Z,57.00
2023-03-29T17:54:21.836Z,57.15
2023-03-29T17:57:29.700Z,57.11
2023-03-29T18:00:41.018Z,57.23
2023-03-29T18:03:44.022Z,57.01
2023-03-29T18:06:47.093Z,57.21
2023-03-29T18:10:17.666Z,57.27
2023-03-29T18:13:25.580Z,57.75
2023-03-29T18:19:42.123Z,57.37
2023-03-29T18:22:45.054Z,57.28
2023-03-29T18:25:48.240Z,57.58
2023-03-29T18:28:51.364Z,57.46
2023-03-29T18:31:54.088Z,57.70
2023-03-29T18:34:57.207Z,57.76
2023-03-29T18:37:59.828Z,58.13
2023-03-29T18:41:03.930Z,58.12
2023-03-29T18:44:07.727Z,58.33
2023-03-29T18:47:10.713Z,58.39
2023-03-29T18:50:13.352Z,58.56
2023-03-29T18:53:16.793Z,58.55
2023-03-29T18:56:19.702Z,58.74
2023-03-29T18:59:28.969Z,59.05
2023-03-29T19:02:31.573Z,59.46
2023-03-29T19:05:39.214Z,59.98
2023-03-29T19:08:42.312Z,60.41
2023-03-29T19:11:47.917Z,60.10
2023-03-29T19:14:50.739Z,60.16
2023-03-29T19:17:53.381Z,59.76
2023-03-29T19:20:56.298Z,59.70
2023-03-29T19:24:00.971Z,59.60
2023-03-29T19:27:04.261Z,60.32
2023-03-29T19:30:07.684Z,60.34
2023-03-29T19:38:39.619Z,60.49
2023-03-29T19:45:36.815Z,61.27
2023-03-29T19:48:40.231Z,60.90
2023-03-29T19:52:30.447Z,60.83
2023-03-29T19:55:33.739Z,60.66
2023-03-29T19:58:37.647Z,60.90
2023-03-29T20:01:42.864Z,61.33
2023-03-29T20:04:46.518Z,61.27
2023-03-29T20:07:49.261Z,61.79
2023-03-29T20:11:10.571Z,61.96
2023-03-29T20:14:13.575Z,61.90
2023-03-29T20:17:16.738Z,61.57
2023-03-29T20:20:21.505Z,61.55
2023-03-29T20:23:24.359Z,61.55
2023-03-29T20:26:29.252Z,61.50
2023-03-29T20:29:34.121Z,61.49
2023-03-29T20:32:36.774Z,61.86
2023-03-29T20:35:42.803Z,62.08
2023-03-29T20:38:45.585Z,61.81
2023-03-29T20:41:48.833Z,61.93
2023-03-29T20:44:51.580Z,62.26
2023-03-29T20:48:03.539Z,61.92
2023-03-29T20:51:11.184Z,62.21
2023-03-29T20:54:13.812Z,62.31
2023-03-29T20:57:19.777Z,62.95
2023-03-29T21:00:22.744Z,63.09
2023-03-29T21:07:31.015Z,63.46
2023-03-29T21:10:33.795Z,63.44
2023-03-29T21:13:37.268Z,63.37
2023-03-29T21:16:42.545Z,63.19
2023-03-29T21:23:21.770Z,63.68
2023-03-29T21:26:24.431Z,63.67
2023-03-29T21:37:15.272Z,63.88
2023-03-29T21:40:18.116Z,64.27
2023-03-29T21:43:21.456Z,63.84
2023-03-29T21:46:25.856Z,63.83
2023-03-29T21:50:17.659Z,63.29
2023-03-29T21:53:20.411Z,63.69
2023-03-29T21:56:23.211Z,64.01
2023-03-29T21:59:28.938Z,63.56
2023-03-29T22:13:03.710Z,64.48
2023-03-29T22:16:07.723Z,64.64
2023-03-29T22:19:11.871Z,64.27
2023-03-29T22:22:14.828Z,64.71
2023-03-29T22:25:19.472Z,65.02
2023-03-29T22:28:22.091Z,64.85
2023-03-29T22:31:26.470Z,65.23
2023-03-29T22:34:30.139Z,65.46
2023-03-29T22:37:33.357Z,65.56
2023-03-29T22:40:41.261Z,65.81
2023-03-29T22:43:44.797Z,66.35
2023-03-29T22:46:47.532Z,67.07
2023-03-29T22:49:50.095Z,67.14
2023-03-29T22:58:34.239Z,67.09
2023-03-29T23:01:36.957Z,67.30
2023-03-29T23:04:39.594Z,67.40
2023-03-29T23:07:42.186Z,67.63
2023-03-29T23:10:46.239Z,67.59
2023-03-29T23:13:49.025Z,67.47
2023-03-29T23:16:51.685Z,67.26
2023-03-29T23:20:17.892Z,67.44
2023-03-29T23:23:21.873Z,67.56
2023-03-29T23:26:24.442Z,67.71
2023-03-29T23:29:27.430Z,67.62
2023-03-29T23:32:30.389Z,67.13
2023-03-29T23:35:33.414Z,67.43
2023-03-29T23:38:38.771Z,67.53
2023-03-29T23:41:41.403Z,67.71
2023-03-29T23:44:44.061Z,67.53
2023-03-29T23:47:46.736Z,67.44
2023-03-29T23:50:50.181Z,67.32
2023-03-29T23:53:52.772Z,67.33
2023-03-29T23:56:55.371Z,67.88
